Linworth, Ohio
Current Conditions -  °F | °C
As of 7:53 PM on Monday 20 Oct 2014 (Local Time) from KOSU Reporting Station
Broken Clouds Broken Clouds  
Wind Chill: 52°   Ceiling: 3700
Heat Index: 52°   Visibility: 10mi
Dew Point: 50°   Wind: 5mph
Humidity: 93%   Direction: 190°S
Pressure: 29.87"   Gusts: NA
Location:  40.0994°N, 83.0166°W
Report Text: KOSU 202353Z 19004KT 10SM FEW026 BKN037 BKN065 11/10 A2987 RMK AO2 LTG DSNT SE RAE04B24E33 SLP115 P0000 60018 T01110100 10161 20111 55003
Loading
Personal Weather Stations






























Interactive Weather Map
Tropical Storm Tracking
New forecast layout! Learn more

10-Day Weather Forecast

Advertisements
Track Severe Weather on mobile